sensor_id;sensor_type;location;lat;lon;timestamp;pressure;altitude;pressure_sealevel;temperature;humidity
43420;BME280;29017;51.514;-0.178;2024-01-30T00:01:11;101681.56;;;13.97;96.57
43420;BME280;29017;51.514;-0.178;2024-01-30T00:03:38;101681.38;;;13.91;97.18
43420;BME280;29017;51.514;-0.178;2024-01-30T00:06:05;101677.13;;;13.98;97.20
43420;BME280;29017;51.514;-0.178;2024-01-30T00:08:34;101674.31;;;13.99;97.58
43420;BME280;29017;51.514;-0.178;2024-01-30T00:11:04;101667.06;;;14.01;98.13
43420;BME280;29017;51.514;-0.178;2024-01-30T00:13:31;101671.81;;;13.98;97.60
43420;BME280;29017;51.514;-0.178;2024-01-30T00:15:58;101671.69;;;13.99;97.81
43420;BME280;29017;51.514;-0.178;2024-01-30T00:18:25;101670.69;;;14.00;97.83
43420;BME280;29017;51.514;-0.178;2024-01-30T00:20:51;101659.94;;;14.02;97.79
43420;BME280;29017;51.514;-0.178;2024-01-30T00:23:18;101662.06;;;13.98;97.85
43420;BME280;29017;51.514;-0.178;2024-01-30T00:25:45;101663.13;;;14.05;97.97
43420;BME280;29017;51.514;-0.178;2024-01-30T00:28:18;101665.91;;;14.04;97.82
43420;BME280;29017;51.514;-0.178;2024-01-30T00:30:45;101651.56;;;14.06;97.49
43420;BME280;29017;51.514;-0.178;2024-01-30T00:33:12;101661.97;;;14.08;97.38
43420;BME280;29017;51.514;-0.178;2024-01-30T00:35:39;101664.78;;;14.06;97.48
43420;BME280;29017;51.514;-0.178;2024-01-30T00:38:06;101666.75;;;14.04;97.41
43420;BME280;29017;51.514;-0.178;2024-01-30T00:40:34;101662.28;;;14.05;97.14
43420;BME280;29017;51.514;-0.178;2024-01-30T00:43:01;101659.66;;;14.05;97.21
43420;BME280;29017;51.514;-0.178;2024-01-30T00:45:28;101662.81;;;14.08;97.01
43420;BME280;29017;51.514;-0.178;2024-01-30T00:47:55;101665.31;;;14.10;96.83
43420;BME280;29017;51.514;-0.178;2024-01-30T00:50:21;101664.97;;;14.13;96.20
43420;BME280;29017;51.514;-0.178;2024-01-30T00:52:48;101663.16;;;14.13;95.59
43420;BME280;29017;51.514;-0.178;2024-01-30T00:55:15;101672.94;;;14.13;94.54
43420;BME280;29017;51.514;-0.178;2024-01-30T00:57:42;101673.75;;;14.13;94.15
43420;BME280;29017;51.514;-0.178;2024-01-30T01:00:11;101669.28;;;14.14;93.21
43420;BME280;29017;51.514;-0.178;2024-01-30T01:02:39;101666.66;;;14.14;93.08
43420;BME280;29017;51.514;-0.178;2024-01-30T01:05:06;101659.53;;;14.14;93.03
43420;BME280;29017;51.514;-0.178;2024-01-30T01:07:33;101655.69;;;14.09;92.46
43420;BME280;29017;51.514;-0.178;2024-01-30T01:10:00;101644.13;;;14.10;93.31
43420;BME280;29017;51.514;-0.178;2024-01-30T01:12:27;101646.28;;;14.06;91.99
43420;BME280;29017;51.514;-0.178;2024-01-30T01:14:54;101629.56;;;14.06;91.82
43420;BME280;29017;51.514;-0.178;2024-01-30T01:17:21;101641.13;;;14.05;91.45
43420;BME280;29017;51.514;-0.178;2024-01-30T01:19:48;101635.69;;;14.06;91.21
43420;BME280;29017;51.514;-0.178;2024-01-30T01:22:15;101621.25;;;14.01;91.33
43420;BME280;29017;51.514;-0.178;2024-01-30T01:24:43;101630.69;;;14.03;91.64
43420;BME280;29017;51.514;-0.178;2024-01-30T01:27:10;101635.97;;;14.03;92.47
43420;BME280;29017;51.514;-0.178;2024-01-30T01:29:38;101621.75;;;14.04;92.18
43420;BME280;29017;51.514;-0.178;2024-01-30T01:32:05;101611.78;;;13.98;92.23
43420;BME280;29017;51.514;-0.178;2024-01-30T01:34:32;101600.22;;;13.99;92.53
43420;BME280;29017;51.514;-0.178;2024-01-30T01:36:59;101623.06;;;14.00;92.55
43420;BME280;29017;51.514;-0.178;2024-01-30T01:39:26;101619.59;;;14.00;91.92
43420;BME280;29017;51.514;-0.178;2024-01-30T01:41:53;101640.25;;;13.96;91.25
43420;BME280;29017;51.514;-0.178;2024-01-30T01:44:20;101644.72;;;13.96;91.37
43420;BME280;29017;51.514;-0.178;2024-01-30T01:46:47;101638.56;;;13.95;91.55
43420;BME280;29017;51.514;-0.178;2024-01-30T01:49:14;101638.88;;;13.92;91.19
43420;BME280;29017;51.514;-0.178;2024-01-30T01:51:42;101654.59;;;13.94;91.13
43420;BME280;29017;51.514;-0.178;2024-01-30T01:54:11;101646.50;;;13.95;91.54
43420;BME280;29017;51.514;-0.178;2024-01-30T01:56:38;101646.16;;;13.90;91.02
43420;BME280;29017;51.514;-0.178;2024-01-30T01:59:06;101643.50;;;13.90;90.41
43420;BME280;29017;51.514;-0.178;2024-01-30T02:01:36;101647.13;;;13.89;90.15
43420;BME280;29017;51.514;-0.178;2024-01-30T02:04:03;101646.25;;;13.81;89.14
43420;BME280;29017;51.514;-0.178;2024-01-30T02:06:31;101642.41;;;13.75;89.32
43420;BME280;29017;51.514;-0.178;2024-01-30T02:08:58;101664.66;;;13.73;89.69
43420;BME280;29017;51.514;-0.178;2024-01-30T02:11:25;101664.84;;;13.71;89.93
43420;BME280;29017;51.514;-0.178;2024-01-30T02:13:52;101664.47;;;13.66;89.48
43420;BME280;29017;51.514;-0.178;2024-01-30T02:16:19;101669.53;;;13.59;89.22
43420;BME280;29017;51.514;-0.178;2024-01-30T02:18:46;101668.25;;;13.63;89.25
43420;BME280;29017;51.514;-0.178;2024-01-30T02:21:15;101661.59;;;13.59;89.10
43420;BME280;29017;51.514;-0.178;2024-01-30T02:23:46;101654.78;;;13.57;89.29
43420;BME280;29017;51.514;-0.178;2024-01-30T02:26:13;101641.50;;;13.49;88.67
43420;BME280;29017;51.514;-0.178;2024-01-30T02:28:40;101638.03;;;13.48;89.28
43420;BME280;29017;51.514;-0.178;2024-01-30T02:31:07;101651.38;;;13.47;88.71
43420;BME280;29017;51.514;-0.178;2024-01-30T02:33:34;101650.03;;;13.43;88.48
43420;BME280;29017;51.514;-0.178;2024-01-30T02:36:01;101648.38;;;13.42;88.31
43420;BME280;29017;51.514;-0.178;2024-01-30T02:38:28;101654.47;;;13.42;88.75
43420;BME280;29017;51.514;-0.178;2024-01-30T02:40:55;101658.28;;;13.40;89.26
43420;BME280;29017;51.514;-0.178;2024-01-30T02:43:23;101665.50;;;13.38;88.43
43420;BME280;29017;51.514;-0.178;2024-01-30T02:45:50;101659.59;;;13.26;88.11
43420;BME280;29017;51.514;-0.178;2024-01-30T02:48:17;101660.59;;;13.25;88.86
43420;BME280;29017;51.514;-0.178;2024-01-30T02:50:44;101655.31;;;13.25;88.90
43420;BME280;29017;51.514;-0.178;2024-01-30T02:53:11;101646.00;;;13.21;88.98
43420;BME280;29017;51.514;-0.178;2024-01-30T02:55:37;101645.34;;;13.19;88.91
43420;BME280;29017;51.514;-0.178;2024-01-30T02:58:04;101664.44;;;13.13;88.47
43420;BME280;29017;51.514;-0.178;2024-01-30T03:00:31;101673.59;;;13.09;89.17
43420;BME280;29017;51.514;-0.178;2024-01-30T03:02:58;101679.16;;;13.06;89.01
43420;BME280;29017;51.514;-0.178;2024-01-30T03:05:25;101671.41;;;13.04;88.80
43420;BME280;29017;51.514;-0.178;2024-01-30T03:07:52;101666.72;;;12.98;88.32
43420;BME280;29017;51.514;-0.178;2024-01-30T03:10:19;101672.31;;;12.95;88.83
43420;BME280;29017;51.514;-0.178;2024-01-30T03:12:46;101672.72;;;12.91;89.53
43420;BME280;29017;51.514;-0.178;2024-01-30T03:15:13;101667.59;;;12.89;89.21
43420;BME280;29017;51.514;-0.178;2024-01-30T03:17:43;101679.41;;;12.85;89.70
43420;BME280;29017;51.514;-0.178;2024-01-30T03:20:10;101674.31;;;12.83;89.05
43420;BME280;29017;51.514;-0.178;2024-01-30T03:22:37;101680.13;;;12.87;89.08
43420;BME280;29017;51.514;-0.178;2024-01-30T03:25:04;101678.59;;;12.84;89.23
43420;BME280;29017;51.514;-0.178;2024-01-30T03:27:31;101678.59;;;12.84;89.39
43420;BME280;29017;51.514;-0.178;2024-01-30T03:29:58;101674.13;;;12.85;90.36
43420;BME280;29017;51.514;-0.178;2024-01-30T03:32:25;101688.88;;;12.88;90.65
43420;BME280;29017;51.514;-0.178;2024-01-30T03:34:51;101680.56;;;12.82;89.53
43420;BME280;29017;51.514;-0.178;2024-01-30T03:37:18;101672.09;;;12.79;89.46
43420;BME280;29017;51.514;-0.178;2024-01-30T03:39:45;101676.81;;;12.75;90.29
43420;BME280;29017;51.514;-0.178;2024-01-30T03:42:12;101681.72;;;12.70;90.28
43420;BME280;29017;51.514;-0.178;2024-01-30T03:44:39;101695.75;;;12.71;91.09
43420;BME280;29017;51.514;-0.178;2024-01-30T03:47:06;101688.00;;;12.69;91.02
43420;BME280;29017;51.514;-0.178;2024-01-30T03:49:33;101690.25;;;12.64;90.67
43420;BME280;29017;51.514;-0.178;2024-01-30T03:52:00;101690.50;;;12.61;90.81
43420;BME280;29017;51.514;-0.178;2024-01-30T03:54:27;101702.88;;;12.61;91.05
43420;BME280;29017;51.514;-0.178;2024-01-30T03:56:53;101705.81;;;12.58;92.06
43420;BME280;29017;51.514;-0.178;2024-01-30T03:59:20;101699.41;;;12.60;92.29
43420;BME280;29017;51.514;-0.178;2024-01-30T04:01:50;101700.53;;;12.58;92.71
43420;BME280;29017;51.514;-0.178;2024-01-30T04:04:18;101696.91;;;12.59;93.37
43420;BME280;29017;51.514;-0.178;2024-01-30T04:06:45;101698.84;;;12.57;93.28
43420;BME280;29017;51.514;-0.178;2024-01-30T04:09:12;101693.88;;;12.54;93.30
43420;BME280;29017;51.514;-0.178;2024-01-30T04:11:40;101694.72;;;12.54;93.40
43420;BME280;29017;51.514;-0.178;2024-01-30T04:14:06;101690.00;;;12.48;93.94
43420;BME280;29017;51.514;-0.178;2024-01-30T04:16:34;101690.13;;;12.47;94.27
43420;BME280;29017;51.514;-0.178;2024-01-30T04:19:00;101685.28;;;12.42;94.30
43420;BME280;29017;51.514;-0.178;2024-01-30T04:21:27;101686.69;;;12.36;94.87
43420;BME280;29017;51.514;-0.178;2024-01-30T04:23:54;101687.66;;;12.35;94.54
43420;BME280;29017;51.514;-0.178;2024-01-30T04:26:21;101680.72;;;12.34;94.75
43420;BME280;29017;51.514;-0.178;2024-01-30T04:28:48;101678.38;;;12.31;94.87
43420;BME280;29017;51.514;-0.178;2024-01-30T04:31:15;101683.66;;;12.31;95.30
43420;BME280;29017;51.514;-0.178;2024-01-30T04:33:45;101689.50;;;12.25;95.60
43420;BME280;29017;51.514;-0.178;2024-01-30T04:36:12;101690.88;;;12.29;96.50
43420;BME280;29017;51.514;-0.178;2024-01-30T04:38:39;101686.16;;;12.33;96.64
43420;BME280;29017;51.514;-0.178;2024-01-30T04:41:06;101696.56;;;12.34;96.36
43420;BME280;29017;51.514;-0.178;2024-01-30T04:43:33;101693.25;;;12.32;95.85
43420;BME280;29017;51.514;-0.178;2024-01-30T04:46:00;101696.44;;;12.26;96.33
43420;BME280;29017;51.514;-0.178;2024-01-30T04:48:27;101697.16;;;12.28;96.85
43420;BME280;29017;51.514;-0.178;2024-01-30T04:50:54;101699.22;;;12.25;97.24
43420;BME280;29017;51.514;-0.178;2024-01-30T04:53:22;101699.63;;;12.30;97.83
43420;BME280;29017;51.514;-0.178;2024-01-30T04:55:49;101708.66;;;12.27;97.92
43420;BME280;29017;51.514;-0.178;2024-01-30T04:58:16;101698.13;;;12.27;97.82
43420;BME280;29017;51.514;-0.178;2024-01-30T05:00:43;101692.31;;;12.24;97.74
43420;BME280;29017;51.514;-0.178;2024-01-30T05:03:10;101708.81;;;12.26;98.53
43420;BME280;29017;51.514;-0.178;2024-01-30T05:05:37;101712.81;;;12.30;98.82
43420;BME280;29017;51.514;-0.178;2024-01-30T05:08:04;101718.78;;;12.32;98.60
43420;BME280;29017;51.514;-0.178;2024-01-30T05:10:31;101716.44;;;12.29;98.34
43420;BME280;29017;51.514;-0.178;2024-01-30T05:12:57;101727.41;;;12.24;98.15
43420;BME280;29017;51.514;-0.178;2024-01-30T05:15:24;101723.97;;;12.24;98.30
43420;BME280;29017;51.514;-0.178;2024-01-30T05:17:51;101717.00;;;12.23;98.01
43420;BME280;29017;51.514;-0.178;2024-01-30T05:20:19;101718.69;;;12.24;97.71
43420;BME280;29017;51.514;-0.178;2024-01-30T05:22:46;101723.25;;;12.22;97.29
43420;BME280;29017;51.514;-0.178;2024-01-30T05:25:13;101730.03;;;12.24;96.45
43420;BME280;29017;51.514;-0.178;2024-01-30T05:27:40;101741.31;;;12.26;95.77
43420;BME280;29017;51.514;-0.178;2024-01-30T05:30:07;101749.34;;;12.25;95.04
43420;BME280;29017;51.514;-0.178;2024-01-30T05:32:34;101745.47;;;12.19;92.88
43420;BME280;29017;51.514;-0.178;2024-01-30T05:35:01;101754.38;;;12.18;92.00
43420;BME280;29017;51.514;-0.178;2024-01-30T05:37:28;101774.06;;;12.14;90.90
43420;BME280;29017;51.514;-0.178;2024-01-30T05:39:55;101784.63;;;12.14;90.81
43420;BME280;29017;51.514;-0.178;2024-01-30T05:42:22;101787.69;;;12.10;89.81
43420;BME280;29017;51.514;-0.178;2024-01-30T05:44:49;101787.25;;;12.05;89.30
43420;BME280;29017;51.514;-0.178;2024-01-30T05:47:16;101792.00;;;12.01;89.05
43420;BME280;29017;51.514;-0.178;2024-01-30T05:49:43;101794.91;;;11.98;89.13
43420;BME280;29017;51.514;-0.178;2024-01-30T05:52:10;101802.13;;;11.96;89.37
43420;BME280;29017;51.514;-0.178;2024-01-30T05:54:38;101812.38;;;11.89;89.06
43420;BME280;29017;51.514;-0.178;2024-01-30T05:57:09;101818.91;;;11.85;89.64
43420;BME280;29017;51.514;-0.178;2024-01-30T05:59:36;101825.97;;;11.85;89.73
43420;BME280;29017;51.514;-0.178;2024-01-30T06:02:06;101830.41;;;11.75;89.91
43420;BME280;29017;51.514;-0.178;2024-01-30T06:04:34;101826.81;;;11.76;90.11
43420;BME280;29017;51.514;-0.178;2024-01-30T06:07:01;101838.47;;;11.73;90.36
43420;BME280;29017;51.514;-0.178;2024-01-30T06:09:29;101833.41;;;11.70;90.15
43420;BME280;29017;51.514;-0.178;2024-01-30T06:11:55;101839.09;;;11.66;91.27
43420;BME280;29017;51.514;-0.178;2024-01-30T06:14:22;101841.31;;;11.61;92.33
43420;BME280;29017;51.514;-0.178;2024-01-30T06:16:50;101857.66;;;11.64;93.01
43420;BME280;29017;51.514;-0.178;2024-01-30T06:19:17;101852.94;;;11.58;93.41
43420;BME280;29017;51.514;-0.178;2024-01-30T06:21:44;101858.59;;;11.53;93.50
43420;BME280;29017;51.514;-0.178;2024-01-30T06:24:12;101853.63;;;11.50;94.54
43420;BME280;29017;51.514;-0.178;2024-01-30T06:26:39;101860.56;;;11.51;95.55
43420;BME280;29017;51.514;-0.178;2024-01-30T06:29:06;101861.81;;;11.47;96.05
43420;BME280;29017;51.514;-0.178;2024-01-30T06:31:39;101858.72;;;11.42;95.59
43420;BME280;29017;51.514;-0.178;2024-01-30T06:34:06;101864.00;;;11.42;95.52
43420;BME280;29017;51.514;-0.178;2024-01-30T06:36:33;101869.94;;;11.44;95.69
43420;BME280;29017;51.514;-0.178;2024-01-30T06:39:02;101879.81;;;11.42;94.50
43420;BME280;29017;51.514;-0.178;2024-01-30T06:41:29;101886.16;;;11.40;94.38
43420;BME280;29017;51.514;-0.178;2024-01-30T06:43:56;101903.91;;;11.38;93.79
43420;BME280;29017;51.514;-0.178;2024-01-30T06:46:23;101898.91;;;11.35;93.42
43420;BME280;29017;51.514;-0.178;2024-01-30T06:48:50;101907.91;;;11.32;93.05
43420;BME280;29017;51.514;-0.178;2024-01-30T06:51:17;101904.28;;;11.33;93.19
43420;BME280;29017;51.514;-0.178;2024-01-30T06:53:44;101912.50;;;11.40;93.86
43420;BME280;29017;51.514;-0.178;2024-01-30T06:56:11;101921.78;;;11.34;91.85
43420;BME280;29017;51.514;-0.178;2024-01-30T06:58:37;101918.19;;;11.35;91.55
43420;BME280;29017;51.514;-0.178;2024-01-30T07:01:04;101919.69;;;11.38;91.86
43420;BME280;29017;51.514;-0.178;2024-01-30T07:03:31;101925.38;;;11.33;90.98
43420;BME280;29017;51.514;-0.178;2024-01-30T07:05:58;101927.59;;;11.38;90.97
43420;BME280;29017;51.514;-0.178;2024-01-30T07:08:25;101939.97;;;11.37;90.49
43420;BME280;29017;51.514;-0.178;2024-01-30T07:10:52;101943.56;;;11.36;90.13
43420;BME280;29017;51.514;-0.178;2024-01-30T07:13:27;101948.84;;;11.36;89.35
43420;BME280;29017;51.514;-0.178;2024-01-30T07:15:55;101947.16;;;11.35;89.35
43420;BME280;29017;51.514;-0.178;2024-01-30T07:18:21;101951.31;;;11.38;89.47
43420;BME280;29017;51.514;-0.178;2024-01-30T07:20:48;101950.53;;;11.37;89.60
43420;BME280;29017;51.514;-0.178;2024-01-30T07:23:16;101959.22;;;11.38;89.25
43420;BME280;29017;51.514;-0.178;2024-01-30T07:25:44;101959.38;;;11.36;87.67
43420;BME280;29017;51.514;-0.178;2024-01-30T07:28:14;101973.63;;;11.34;87.91
43420;BME280;29017;51.514;-0.178;2024-01-30T07:30:43;101977.09;;;11.34;88.09
43420;BME280;29017;51.514;-0.178;2024-01-30T07:33:10;101987.41;;;11.37;88.57
43420;BME280;29017;51.514;-0.178;2024-01-30T07:35:37;101993.25;;;11.41;89.44
43420;BME280;29017;51.514;-0.178;2024-01-30T07:38:04;101997.28;;;11.45;88.81
43420;BME280;29017;51.514;-0.178;2024-01-30T07:40:31;102000.88;;;11.44;87.52
43420;BME280;29017;51.514;-0.178;2024-01-30T07:43:00;102007.81;;;11.45;87.28
43420;BME280;29017;51.514;-0.178;2024-01-30T07:45:27;102015.00;;;11.43;87.10
43420;BME280;29017;51.514;-0.178;2024-01-30T07:47:59;102013.81;;;11.47;87.25
43420;BME280;29017;51.514;-0.178;2024-01-30T07:50:28;102010.72;;;11.42;86.19
43420;BME280;29017;51.514;-0.178;2024-01-30T07:52:56;102007.50;;;11.38;86.44
43420;BME280;29017;51.514;-0.178;2024-01-30T07:55:23;102021.78;;;11.36;86.69
43420;BME280;29017;51.514;-0.178;2024-01-30T07:57:58;102028.56;;;11.38;87.01
43420;BME280;29017;51.514;-0.178;2024-01-30T08:00:28;102028.97;;;11.54;92.90
43420;BME280;29017;51.514;-0.178;2024-01-30T08:02:56;102042.66;;;11.69;94.43
43420;BME280;29017;51.514;-0.178;2024-01-30T08:05:23;102050.44;;;11.71;89.35
43420;BME280;29017;51.514;-0.178;2024-01-30T08:07:50;102059.31;;;11.70;86.89
43420;BME280;29017;51.514;-0.178;2024-01-30T08:10:17;102063.44;;;11.63;84.39
43420;BME280;29017;51.514;-0.178;2024-01-30T08:12:51;102072.81;;;11.55;83.86
43420;BME280;29017;51.514;-0.178;2024-01-30T08:15:30;102086.28;;;11.52;84.01
43420;BME280;29017;51.514;-0.178;2024-01-30T08:17:57;102085.81;;;11.47;83.69
43420;BME280;29017;51.514;-0.178;2024-01-30T08:20:27;102092.63;;;11.50;84.40
43420;BME280;29017;51.514;-0.178;2024-01-30T08:22:54;102100.41;;;11.51;84.35
43420;BME280;29017;51.514;-0.178;2024-01-30T08:25:20;102103.28;;;11.48;84.04
43420;BME280;29017;51.514;-0.178;2024-01-30T08:27:48;102105.91;;;11.48;84.03
43420;BME280;29017;51.514;-0.178;2024-01-30T08:30:15;102106.91;;;11.47;83.56
43420;BME280;29017;51.514;-0.178;2024-01-30T08:32:42;102106.06;;;11.47;82.73
43420;BME280;29017;51.514;-0.178;2024-01-30T08:35:09;102113.38;;;11.43;82.74
43420;BME280;29017;51.514;-0.178;2024-01-30T08:37:36;102122.94;;;11.44;82.90
43420;BME280;29017;51.514;-0.178;2024-01-30T08:40:03;102124.63;;;11.45;82.82
43420;BME280;29017;51.514;-0.178;2024-01-30T08:42:31;102130.16;;;11.42;82.53
43420;BME280;29017;51.514;-0.178;2024-01-30T08:44:59;102131.69;;;11.45;83.29
43420;BME280;29017;51.514;-0.178;2024-01-30T08:47:53;102138.06;;;11.42;82.64
43420;BME280;29017;51.514;-0.178;2024-01-30T08:50:25;102137.91;;;11.44;82.78
43420;BME280;29017;51.514;-0.178;2024-01-30T08:52:52;102146.66;;;11.44;83.60
43420;BME280;29017;51.514;-0.178;2024-01-30T08:55:21;102142.13;;;11.46;82.54
43420;BME280;29017;51.514;-0.178;2024-01-30T08:58:00;102158.88;;;11.45;82.82
43420;BME280;29017;51.514;-0.178;2024-01-30T09:00:40;102160.34;;;11.38;82.30
43420;BME280;29017;51.514;-0.178;2024-01-30T09:03:17;102166.06;;;11.43;83.84
43420;BME280;29017;51.514;-0.178;2024-01-30T09:05:52;102170.38;;;11.44;82.69
43420;BME280;29017;51.514;-0.178;2024-01-30T09:08:31;102176.03;;;11.40;82.15
43420;BME280;29017;51.514;-0.178;2024-01-30T09:11:09;102186.69;;;11.38;82.18
43420;BME280;29017;51.514;-0.178;2024-01-30T09:13:49;102183.81;;;11.41;82.82
43420;BME280;29017;51.514;-0.178;2024-01-30T09:16:19;102187.03;;;11.45;81.82
43420;BME280;29017;51.514;-0.178;2024-01-30T09:18:45;102194.84;;;11.46;81.78
43420;BME280;29017;51.514;-0.178;2024-01-30T09:21:12;102195.06;;;11.43;81.52
43420;BME280;29017;51.514;-0.178;2024-01-30T09:23:39;102201.06;;;11.45;82.22
43420;BME280;29017;51.514;-0.178;2024-01-30T09:26:06;102205.28;;;11.37;80.58
43420;BME280;29017;51.514;-0.178;2024-01-30T09:28:33;102205.13;;;11.38;81.29
43420;BME280;29017;51.514;-0.178;2024-01-30T09:31:00;102205.97;;;11.39;81.14
43420;BME280;29017;51.514;-0.178;2024-01-30T09:33:27;102216.41;;;11.40;81.70
43420;BME280;29017;51.514;-0.178;2024-01-30T09:35:54;102227.06;;;11.39;81.27
43420;BME280;29017;51.514;-0.178;2024-01-30T09:38:21;102222.41;;;11.42;81.66
43420;BME280;29017;51.514;-0.178;2024-01-30T09:40:49;102223.81;;;11.46;81.10
43420;BME280;29017;51.514;-0.178;2024-01-30T09:43:21;102234.47;;;11.45;81.35
43420;BME280;29017;51.514;-0.178;2024-01-30T09:45:52;102231.84;;;11.45;81.09
43420;BME280;29017;51.514;-0.178;2024-01-30T09:48:20;102238.69;;;11.47;81.49
43420;BME280;29017;51.514;-0.178;2024-01-30T09:50:47;102246.34;;;11.50;81.09
43420;BME280;29017;51.514;-0.178;2024-01-30T09:53:14;102249.09;;;11.49;80.03
43420;BME280;29017;51.514;-0.178;2024-01-30T09:55:42;102252.09;;;11.44;80.10
43420;BME280;29017;51.514;-0.178;2024-01-30T09:58:09;102256.03;;;11.50;80.54
43420;BME280;29017;51.514;-0.178;2024-01-30T10:00:36;102264.06;;;11.48;80.17
43420;BME280;29017;51.514;-0.178;2024-01-30T10:03:03;102267.31;;;11.52;79.45
43420;BME280;29017;51.514;-0.178;2024-01-30T10:05:31;102260.94;;;11.54;79.11
43420;BME280;29017;51.514;-0.178;2024-01-30T10:08:00;102265.81;;;11.59;79.46
43420;BME280;29017;51.514;-0.178;2024-01-30T10:10:27;102270.88;;;11.62;79.19
43420;BME280;29017;51.514;-0.178;2024-01-30T10:12:54;102278.28;;;11.68;79.01
43420;BME280;29017;51.514;-0.178;2024-01-30T10:15:21;102280.09;;;11.68;78.71
43420;BME280;29017;51.514;-0.178;2024-01-30T10:17:49;102283.91;;;11.75;78.26
43420;BME280;29017;51.514;-0.178;2024-01-30T10:20:15;102279.25;;;11.78;77.63
43420;BME280;29017;51.514;-0.178;2024-01-30T10:22:44;102293.03;;;11.82;77.95
43420;BME280;29017;51.514;-0.178;2024-01-30T10:25:12;102298.19;;;11.83;76.76
43420;BME280;29017;51.514;-0.178;2024-01-30T10:27:39;102300.66;;;11.85;77.01
43420;BME280;29017;51.514;-0.178;2024-01-30T10:30:07;102312.19;;;11.84;77.16
43420;BME280;29017;51.514;-0.178;2024-01-30T10:32:34;102314.13;;;11.82;76.74
43420;BME280;29017;51.514;-0.178;2024-01-30T10:35:01;102325.63;;;11.81;76.34
43420;BME280;29017;51.514;-0.178;2024-01-30T10:37:31;102323.47;;;11.75;75.93
43420;BME280;29017;51.514;-0.178;2024-01-30T10:40:02;102326.56;;;11.80;76.83
43420;BME280;29017;51.514;-0.178;2024-01-30T10:42:31;102332.00;;;11.78;76.19
43420;BME280;29017;51.514;-0.178;2024-01-30T10:45:07;102334.16;;;11.73;76.02
43420;BME280;29017;51.514;-0.178;2024-01-30T10:47:35;102345.03;;;11.69;76.14
43420;BME280;29017;51.514;-0.178;2024-01-30T10:50:06;102346.69;;;11.70;76.13
43420;BME280;29017;51.514;-0.178;2024-01-30T10:52:34;102356.41;;;11.69;75.46
43420;BME280;29017;51.514;-0.178;2024-01-30T10:55:01;102357.63;;;11.65;74.84
43420;BME280;29017;51.514;-0.178;2024-01-30T10:57:31;102360.16;;;11.55;74.72
43420;BME280;29017;51.514;-0.178;2024-01-30T11:00:00;102361.47;;;11.50;75.00
43420;BME280;29017;51.514;-0.178;2024-01-30T11:02:28;102368.31;;;11.52;75.67
43420;BME280;29017;51.514;-0.178;2024-01-30T11:05:01;102375.84;;;11.57;74.66
43420;BME280;29017;51.514;-0.178;2024-01-30T11:07:29;102378.50;;;11.57;74.56
43420;BME280;29017;51.514;-0.178;2024-01-30T11:10:00;102388.88;;;11.58;74.45
43420;BME280;29017;51.514;-0.178;2024-01-30T11:12:28;102390.81;;;11.56;74.33
43420;BME280;29017;51.514;-0.178;2024-01-30T11:15:14;102394.41;;;11.55;73.84
43420;BME280;29017;51.514;-0.178;2024-01-30T11:20:15;102397.06;;;11.55;73.73
43420;BME280;29017;51.514;-0.178;2024-01-30T11:22:44;102384.13;;;11.52;73.65
43420;BME280;29017;51.514;-0.178;2024-01-30T11:25:15;102381.34;;;11.43;73.34
43420;BME280;29017;51.514;-0.178;2024-01-30T11:27:42;102378.22;;;11.49;73.31
43420;BME280;29017;51.514;-0.178;2024-01-30T11:30:10;102393.94;;;11.50;73.55
43420;BME280;29017;51.514;-0.178;2024-01-30T11:32:37;102396.69;;;11.49;72.98
43420;BME280;29017;51.514;-0.178;2024-01-30T11:35:04;102395.84;;;11.48;73.08
43420;BME280;29017;51.514;-0.178;2024-01-30T11:37:33;102412.38;;;11.50;73.52
43420;BME280;29017;51.514;-0.178;2024-01-30T11:40:03;102416.47;;;11.54;73.30
43420;BME280;29017;51.514;-0.178;2024-01-30T11:42:31;102412.88;;;11.55;73.00
43420;BME280;29017;51.514;-0.178;2024-01-30T11:44:59;102426.06;;;11.55;72.69
43420;BME280;29017;51.514;-0.178;2024-01-30T11:47:27;102418.41;;;11.52;72.93
43420;BME280;29017;51.514;-0.178;2024-01-30T11:49:54;102418.13;;;11.55;72.71
43420;BME280;29017;51.514;-0.178;2024-01-30T11:52:25;102426.06;;;11.55;72.23
43420;BME280;29017;51.514;-0.178;2024-01-30T11:54:52;102426.41;;;11.51;72.04
43420;BME280;29017;51.514;-0.178;2024-01-30T11:57:19;102433.00;;;11.45;72.45
43420;BME280;29017;51.514;-0.178;2024-01-30T11:59:46;102441.97;;;11.43;72.79
43420;BME280;29017;51.514;-0.178;2024-01-30T12:02:16;102433.34;;;11.41;72.32
43420;BME280;29017;51.514;-0.178;2024-01-30T12:04:45;102439.09;;;11.46;71.83
43420;BME280;29017;51.514;-0.178;2024-01-30T12:07:13;102439.31;;;11.43;72.32
43420;BME280;29017;51.514;-0.178;2024-01-30T12:09:42;102443.78;;;11.42;72.63
43420;BME280;29017;51.514;-0.178;2024-01-30T12:12:18;102444.50;;;11.44;72.36
43420;BME280;29017;51.514;-0.178;2024-01-30T12:14:45;102439.31;;;11.43;72.43
43420;BME280;29017;51.514;-0.178;2024-01-30T12:17:22;102446.16;;;11.45;71.95
43420;BME280;29017;51.514;-0.178;2024-01-30T12:19:49;102436.22;;;11.49;71.98
43420;BME280;29017;51.514;-0.178;2024-01-30T12:22:16;102445.56;;;11.53;72.32
43420;BME280;29017;51.514;-0.178;2024-01-30T12:24:46;102441.03;;;11.55;71.65
43420;BME280;29017;51.514;-0.178;2024-01-30T12:27:15;102446.78;;;11.60;71.61
43420;BME280;29017;51.514;-0.178;2024-01-30T12:29:42;102444.97;;;11.61;71.33
43420;BME280;29017;51.514;-0.178;2024-01-30T12:32:14;102444.50;;;11.67;71.11
43420;BME280;29017;51.514;-0.178;2024-01-30T12:34:45;102450.25;;;11.72;70.12
43420;BME280;29017;51.514;-0.178;2024-01-30T12:37:25;102462.88;;;11.79;70.87
43420;BME280;29017;51.514;-0.178;2024-01-30T12:39:52;102468.41;;;11.87;70.73
43420;BME280;29017;51.514;-0.178;2024-01-30T12:42:20;102465.13;;;11.95;70.45
43420;BME280;29017;51.514;-0.178;2024-01-30T12:44:50;102465.75;;;11.98;70.31
43420;BME280;29017;51.514;-0.178;2024-01-30T12:47:17;102464.78;;;11.99;70.13